Pagrindinis puslapis
METAR-TAF:

METAR-TAF

Oro uostai :

Kubos Santjagas, Kuba

platuma: 19-58N, ilguma: 075-51W, Aukštis: 69 m

Dabartinis oras

Ataskaita buvo paskelbta 47 minutes, ne 13:52 UTC
Vėjas 10 kt iš Šiaurės, svyruoja nuo Šiaurės/Šiaurės Vakarų ir Šiaurės/Šiaurės Rytų
Temperatūra 24°C
Drėgmė 65%
Slėgis 1016 hPa
Matomumas: 9000 m
Mažai debesys ne aukštis 2000 ft
Su prošvaistėmis ne aukštis 6000 ft

METAR: MUCU 211352Z 36010KT 330V030 9000 FEW020 BKN060 24/17 Q1016

Laikas: 09:39 (14:39 UTC)

Prognozė

Ataskaita buvo paskelbta 3 valandos ir 39 minutes, ne 11:00 UTC
Prognozė galioja nuo 21 metu 12 UTC su 22 metu 12 UTC
Vėjas 10 kt iš Šiaurės
Matomumas: 9000 m
Išsisklaidę debesys ne aukštis 2000 ft
Tapsmas
nuo 22 metu 01 UTC su 22 metu 03 UTC
Vėjas 3 kt nuo kintamojo kryptimis

TAF: MUCU 211100Z 2112/2212 01010KT 9000 SCT020 BECMG 2201/2203 VRB03KT

Orai ataskaitas ir orų prognozės (METAR, TAF).

turimą stotys yra geltonos ir raudonos taškus žemėlapyje.

Perkelti pele per norėdami pamatyti stoties vardą.

Tada spustelėkite, norėdami matyti oro stebėjimo ir prognozės.

Norėdami pakeisti žemėlapį: spustelėkite ant žalios mygtukų su juodo kryžiaus žemyn,; žalią mygtuką su brūkšneliu, jei norite nutolinti; arba žalių rodyklių gretimoms žemėlapius.


METAR-TAF: